Schefferville, Canada
Current Conditions -  °F | °C
As of 1:31 AM on Wednesday 26 Nov 2014 (Local Time) from CYKL Reporting Station
Light Snow Light Snow  
Wind Chill: -17°   Ceiling: 1300
Heat Index: -10°   Visibility: 9mi
Dew Point: -12°   Wind: 10mph
Humidity: 86%   Direction: 330°NNW
Pressure: 29.56"   Gusts: 18mph
Location:  54.8°N, 66.83°W
Report Text: CYKL 260631Z AUTO 33009G16KT 9SM -SN BKN013 BKN029 M10/M12 A2956 RMK SLP049
Loading
Personal Weather Stations






























Interactive Weather Map New forecast layout! Learn more

10-Day Weather Forecast

Advertisements
Track Severe Weather on mobile